createdAt,value
2022-07-25T00:01:59.920Z,18.70
2022-07-25T00:04:30.625Z,18.66
2022-07-25T00:06:58.535Z,18.62
2022-07-25T00:09:28.565Z,18.58
2022-07-25T00:11:56.299Z,18.55
2022-07-25T00:14:24.800Z,18.51
2022-07-25T00:16:53.140Z,18.47
2022-07-25T00:19:21.893Z,18.43
2022-07-25T00:21:50.704Z,18.38
2022-07-25T00:24:18.681Z,18.34
2022-07-25T00:26:46.591Z,18.30
2022-07-25T00:29:15.063Z,18.26
2022-07-25T00:31:43.087Z,18.22
2022-07-25T00:34:11.261Z,18.19
2022-07-25T00:36:39.222Z,18.17
2022-07-25T00:39:07.315Z,18.14
2022-07-25T00:41:36.410Z,18.12
2022-07-25T00:44:04.778Z,18.09
2022-07-25T00:46:33.049Z,18.07
2022-07-25T00:49:01.337Z,18.04
2022-07-25T00:51:29.656Z,18.00
2022-07-25T00:53:58.203Z,17.97
2022-07-25T00:56:27.103Z,17.93
2022-07-25T00:58:55.107Z,17.90
2022-07-25T01:01:24.426Z,17.87
2022-07-25T01:03:52.998Z,17.84
2022-07-25T01:06:24.714Z,17.81
2022-07-25T01:08:54.436Z,17.78
2022-07-25T01:11:23.395Z,17.75
2022-07-25T01:13:52.409Z,17.73
2022-07-25T01:16:20.572Z,17.71
2022-07-25T01:18:48.633Z,17.68
2022-07-25T01:21:16.572Z,17.66
2022-07-25T01:23:44.572Z,17.65
2022-07-25T01:26:13.098Z,17.64
2022-07-25T01:28:40.951Z,17.63
2022-07-25T01:31:10.364Z,17.60
2022-07-25T01:33:41.804Z,17.59
2022-07-25T01:36:10.136Z,17.57
2022-07-25T01:38:38.018Z,17.55
2022-07-25T01:41:09.283Z,17.52
2022-07-25T01:43:37.816Z,17.48
2022-07-25T01:46:05.847Z,17.44
2022-07-25T01:48:34.539Z,17.40
2022-07-25T01:51:02.634Z,17.37
2022-07-25T01:53:31.514Z,17.33
2022-07-25T01:56:03.591Z,17.28
2022-07-25T01:58:32.856Z,17.24
2022-07-25T02:01:00.711Z,17.19
2022-07-25T02:03:31.480Z,17.15
2022-07-25T02:06:06.375Z,17.11
2022-07-25T02:08:34.844Z,17.06
2022-07-25T02:11:04.470Z,17.03
2022-07-25T02:13:32.396Z,16.99
2022-07-25T02:16:01.273Z,16.96
2022-07-25T02:18:29.967Z,16.92
2022-07-25T02:20:58.463Z,16.90
2022-07-25T02:23:28.006Z,16.87
2022-07-25T02:25:56.877Z,16.84
2022-07-25T02:28:25.360Z,16.81
2022-07-25T02:30:53.293Z,16.75
2022-07-25T02:33:21.840Z,16.73
2022-07-25T02:35:50.539Z,16.70
2022-07-25T02:38:21.499Z,16.67
2022-07-25T02:40:51.447Z,16.64
2022-07-25T02:43:21.810Z,16.61
2022-07-25T02:45:51.397Z,16.58
2022-07-25T02:48:19.443Z,16.57
2022-07-25T02:50:47.453Z,16.54
2022-07-25T02:53:24.653Z,16.53
2022-07-25T02:56:03.903Z,16.50
2022-07-25T02:58:34.120Z,16.48
2022-07-25T03:01:02.197Z,16.46
2022-07-25T03:03:30.630Z,16.44
2022-07-25T03:05:59.733Z,16.43
2022-07-25T03:08:27.705Z,16.42
2022-07-25T03:10:56.244Z,16.42
2022-07-25T03:13:25.163Z,16.42
2022-07-25T03:15:53.151Z,16.42
2022-07-25T03:18:23.523Z,16.43
2022-07-25T03:20:52.305Z,16.44
2022-07-25T03:23:20.149Z,16.45
2022-07-25T03:25:49.335Z,16.47
2022-07-25T03:28:18.487Z,16.50
2022-07-25T03:30:47.385Z,16.57
2022-07-25T03:33:15.172Z,16.66
2022-07-25T03:35:43.191Z,16.71
2022-07-25T03:38:11.981Z,16.73
2022-07-25T03:40:40.440Z,16.74
2022-07-25T03:43:08.914Z,16.75
2022-07-25T03:45:37.437Z,16.77
2022-07-25T03:48:05.723Z,16.78
2022-07-25T03:50:34.018Z,16.80
2022-07-25T03:53:01.741Z,16.82
2022-07-25T03:55:30.014Z,16.85
2022-07-25T03:57:58.541Z,16.98
2022-07-25T04:00:26.335Z,17.60
2022-07-25T04:02:55.082Z,17.90
2022-07-25T04:05:23.006Z,17.90
2022-07-25T04:07:51.026Z,17.86
2022-07-25T04:10:18.885Z,17.81
2022-07-25T04:12:48.060Z,17.74
2022-07-25T04:15:16.828Z,17.69
2022-07-25T04:17:44.862Z,17.64
2022-07-25T04:20:13.707Z,17.59
2022-07-25T04:22:46.333Z,17.55
2022-07-25T04:25:16.130Z,17.48
2022-07-25T04:27:44.811Z,17.46
2022-07-25T04:30:23.851Z,17.43
2022-07-25T04:32:53.899Z,17.40
2022-07-25T04:35:21.755Z,17.39
2022-07-25T04:37:50.300Z,17.38
2022-07-25T04:40:18.681Z,17.38
2022-07-25T04:42:46.501Z,17.40
2022-07-25T04:45:14.387Z,17.43
2022-07-25T04:47:46.817Z,17.49
2022-07-25T04:50:15.740Z,17.54
2022-07-25T04:52:44.318Z,17.58
2022-07-25T04:55:13.124Z,17.61
2022-07-25T04:57:41.473Z,17.66
2022-07-25T05:00:13.410Z,17.71
2022-07-25T05:02:46.188Z,17.75
2022-07-25T05:05:21.353Z,17.79
2022-07-25T05:07:51.924Z,17.84
2022-07-25T05:10:20.022Z,17.91
2022-07-25T05:12:50.234Z,17.96
2022-07-25T05:15:19.052Z,18.00
2022-07-25T05:17:48.583Z,18.06
2022-07-25T05:20:16.509Z,18.09
2022-07-25T05:22:45.492Z,18.15
2022-07-25T05:25:13.395Z,18.18
2022-07-25T05:27:41.714Z,18.25
2022-07-25T05:30:11.260Z,18.29
2022-07-25T05:32:40.260Z,18.35
2022-07-25T05:35:09.919Z,18.41
2022-07-25T05:37:38.807Z,18.48
2022-07-25T05:40:07.415Z,18.54
2022-07-25T05:42:35.979Z,18.61
2022-07-25T05:45:04.436Z,18.67
2022-07-25T05:47:32.820Z,18.77
2022-07-25T05:50:00.523Z,18.85
2022-07-25T05:52:30.317Z,18.94
2022-07-25T05:54:58.039Z,19.03
2022-07-25T05:57:25.921Z,19.13
2022-07-25T05:59:56.960Z,19.23
2022-07-25T06:02:25.002Z,19.34
2022-07-25T06:04:53.027Z,19.45
2022-07-25T06:07:22.640Z,19.55
2022-07-25T06:09:50.789Z,19.70
2022-07-25T06:12:18.951Z,19.82
2022-07-25T06:14:53.031Z,19.97
2022-07-25T06:17:26.898Z,20.11
2022-07-25T06:20:03.862Z,20.23
2022-07-25T06:22:32.322Z,20.37
2022-07-25T06:25:03.457Z,20.49
2022-07-25T06:27:31.879Z,20.61
2022-07-25T06:30:00.802Z,20.72
2022-07-25T06:32:37.987Z,20.80
2022-07-25T06:35:06.386Z,20.90
2022-07-25T06:37:37.468Z,20.98
2022-07-25T06:40:06.247Z,21.08
2022-07-25T06:42:37.549Z,21.17
2022-07-25T06:45:08.259Z,21.23
2022-07-25T06:47:38.167Z,21.31
2022-07-25T06:50:08.283Z,21.38
2022-07-25T06:52:40.741Z,21.47
2022-07-25T06:55:09.321Z,21.57
2022-07-25T06:57:37.946Z,21.64
2022-07-25T07:00:09.804Z,21.74
2022-07-25T07:03:01.983Z,21.87
2022-07-25T07:05:33.554Z,21.96
2022-07-25T07:08:04.314Z,22.06
2022-07-25T07:10:37.263Z,22.19
2022-07-25T07:13:36.624Z,22.30
2022-07-25T07:16:08.277Z,22.44
2022-07-25T07:18:37.842Z,22.58
2022-07-25T07:21:06.877Z,22.70
2022-07-25T07:23:40.049Z,22.85
2022-07-25T07:26:08.814Z,22.98
2022-07-25T07:28:36.745Z,23.13
2022-07-25T07:31:20.335Z,23.26
2022-07-25T07:33:48.604Z,23.41
2022-07-25T07:36:17.150Z,23.55
2022-07-25T07:38:45.612Z,23.69
2022-07-25T07:41:16.882Z,23.86
2022-07-25T07:43:45.882Z,24.01
2022-07-25T07:46:19.947Z,24.14
2022-07-25T07:48:48.189Z,24.27
2022-07-25T07:51:18.549Z,24.39
2022-07-25T07:54:05.200Z,24.54
2022-07-25T07:56:35.750Z,24.66
2022-07-25T07:59:06.945Z,24.76
2022-07-25T08:01:35.403Z,24.88
2022-07-25T08:04:03.748Z,24.99
2022-07-25T08:06:31.822Z,25.10
2022-07-25T08:08:59.780Z,25.19
2022-07-25T08:11:28.692Z,25.25
2022-07-25T08:13:58.853Z,25.32
2022-07-25T08:16:26.912Z,25.38
2022-07-25T08:18:54.965Z,25.48
2022-07-25T08:21:22.812Z,25.59
2022-07-25T08:23:51.410Z,25.68
2022-07-25T08:26:19.359Z,25.74
2022-07-25T08:28:50.107Z,25.79
2022-07-25T08:31:20.805Z,25.85
2022-07-25T08:33:49.106Z,25.89
2022-07-25T08:36:18.782Z,25.98
2022-07-25T08:38:46.837Z,26.04
2022-07-25T08:41:14.756Z,26.10
2022-07-25T08:43:45.172Z,26.16
2022-07-25T08:46:18.458Z,26.24
2022-07-25T08:48:46.678Z,26.33
2022-07-25T08:51:15.735Z,26.41
2022-07-25T08:53:43.752Z,26.50
2022-07-25T08:56:20.933Z,26.54
2022-07-25T08:58:59.758Z,26.61
2022-07-25T09:01:34.735Z,26.67
2022-07-25T09:04:08.674Z,26.72
2022-07-25T09:06:37.603Z,26.76
2022-07-25T09:09:11.271Z,26.84
2022-07-25T09:11:39.209Z,26.93
2022-07-25T09:14:11.020Z,27.00
2022-07-25T09:16:45.161Z,27.08
2022-07-25T09:19:15.687Z,27.16
2022-07-25T09:21:46.157Z,27.21
2022-07-25T09:24:16.843Z,27.25
2022-07-25T09:26:50.624Z,27.28
2022-07-25T09:29:30.215Z,27.35
2022-07-25T09:32:01.211Z,27.44
2022-07-25T09:34:35.907Z,27.54
2022-07-25T09:37:09.045Z,27.57
2022-07-25T09:39:45.013Z,27.57
2022-07-25T09:42:26.461Z,27.61
2022-07-25T09:45:07.983Z,27.65
2022-07-25T09:47:37.298Z,27.75
2022-07-25T09:50:07.130Z,27.86
2022-07-25T09:52:36.306Z,27.99
2022-07-25T09:55:06.594Z,28.09
2022-07-25T09:57:37.542Z,28.21
2022-07-25T10:00:07.075Z,28.30
2022-07-25T10:02:55.271Z,28.35
2022-07-25T10:05:51.452Z,28.39
2022-07-25T10:08:21.610Z,28.43
2022-07-25T10:10:50.752Z,28.44
2022-07-25T10:13:31.175Z,28.50
2022-07-25T10:15:59.479Z,28.52
2022-07-25T10:18:29.112Z,28.60
2022-07-25T10:21:25.478Z,28.64
2022-07-25T10:24:07.258Z,28.71
2022-07-25T10:26:41.551Z,28.85
2022-07-25T10:29:11.072Z,28.94
2022-07-25T10:31:49.289Z,29.06
2022-07-25T10:34:30.081Z,29.21
2022-07-25T10:37:00.393Z,29.36
2022-07-25T10:39:38.879Z,29.40
2022-07-25T10:42:07.023Z,29.42
2022-07-25T10:44:47.608Z,29.50
2022-07-25T10:47:17.197Z,29.56
2022-07-25T10:50:15.129Z,29.62
2022-07-25T10:52:45.706Z,29.71
2022-07-25T10:55:25.379Z,29.71
2022-07-25T10:58:17.024Z,29.74
2022-07-25T11:00:45.750Z,29.84
2022-07-25T11:03:18.141Z,29.89
2022-07-25T11:05:47.913Z,29.92
2022-07-25T11:08:22.072Z,29.98
2022-07-25T11:10:53.156Z,30.06
2022-07-25T11:13:21.859Z,30.16
2022-07-25T11:15:50.328Z,30.18
2022-07-25T11:18:31.474Z,30.17
2022-07-25T11:21:06.082Z,30.20
2022-07-25T11:23:35.703Z,30.20
2022-07-25T11:26:11.145Z,30.20
2022-07-25T11:28:45.853Z,30.23
2022-07-25T11:31:16.645Z,30.31
2022-07-25T11:33:49.812Z,30.42
2022-07-25T11:36:18.619Z,30.53
2022-07-25T11:38:51.723Z,30.66
2022-07-25T11:41:32.034Z,30.79
2022-07-25T11:43:59.977Z,30.96
2022-07-25T11:46:28.328Z,31.09
2022-07-25T11:49:06.047Z,31.25
2022-07-25T11:51:39.012Z,31.49
2022-07-25T11:54:13.300Z,31.70
2022-07-25T11:56:43.956Z,31.85
2022-07-25T11:59:12.400Z,32.02
2022-07-25T12:01:42.870Z,32.21
2022-07-25T12:04:16.339Z,32.38
2022-07-25T12:06:50.558Z,32.55
2022-07-25T12:09:20.664Z,32.81
2022-07-25T12:12:13.883Z,32.98
2022-07-25T12:14:44.787Z,33.22
2022-07-25T12:17:12.558Z,33.42
2022-07-25T12:19:41.120Z,33.65
2022-07-25T12:22:09.106Z,33.90
2022-07-25T12:24:37.193Z,34.17
2022-07-25T12:27:05.014Z,34.40
2022-07-25T12:29:33.536Z,34.51
2022-07-25T12:32:01.511Z,34.59
2022-07-25T12:34:29.163Z,34.81
2022-07-25T12:36:57.855Z,35.09
2022-07-25T12:39:26.442Z,35.37
2022-07-25T12:42:01.110Z,35.61
2022-07-25T12:44:29.617Z,35.88
2022-07-25T12:46:57.469Z,36.09
2022-07-25T12:49:28.067Z,36.21
2022-07-25T12:51:58.225Z,36.41
2022-07-25T12:54:26.496Z,36.57
2022-07-25T12:56:54.667Z,36.66
2022-07-25T12:59:23.901Z,36.70
2022-07-25T13:01:51.966Z,36.80
2022-07-25T13:04:19.814Z,36.90
2022-07-25T13:06:47.868Z,37.02
2022-07-25T13:09:18.447Z,37.28
2022-07-25T13:11:46.388Z,37.48
2022-07-25T13:14:16.293Z,37.64
2022-07-25T13:16:46.527Z,37.88
2022-07-25T13:19:15.730Z,38.21
2022-07-25T13:21:45.988Z,38.54
2022-07-25T13:24:13.930Z,38.93
2022-07-25T13:26:41.723Z,39.27
2022-07-25T13:29:12.466Z,39.50
2022-07-25T13:31:41.409Z,39.72
2022-07-25T13:34:10.144Z,39.95
2022-07-25T13:36:39.615Z,40.18
2022-07-25T13:39:07.960Z,40.41
2022-07-25T13:41:36.085Z,40.28
2022-07-25T13:44:04.816Z,40.15
2022-07-25T13:46:34.037Z,40.11
2022-07-25T13:49:01.908Z,40.24
2022-07-25T13:51:30.544Z,40.41
2022-07-25T13:53:58.308Z,40.59
2022-07-25T13:56:26.101Z,40.67
2022-07-25T13:58:54.246Z,40.66
2022-07-25T14:01:22.732Z,40.76
2022-07-25T14:03:50.924Z,40.82
2022-07-25T14:06:19.167Z,40.86
2022-07-25T14:08:47.026Z,41.01
2022-07-25T14:11:14.854Z,41.28
2022-07-25T14:13:44.576Z,41.62
2022-07-25T14:16:16.252Z,41.80
2022-07-25T14:18:44.845Z,41.94
2022-07-25T14:21:12.809Z,42.12
2022-07-25T14:23:40.581Z,42.32
2022-07-25T14:26:08.738Z,42.49
2022-07-25T14:28:36.684Z,42.73
2022-07-25T14:31:04.522Z,43.02
2022-07-25T14:33:38.026Z,43.23
2022-07-25T14:36:07.835Z,43.36
2022-07-25T14:38:36.108Z,43.58
2022-07-25T14:41:12.085Z,43.72
2022-07-25T14:43:41.512Z,43.67
2022-07-25T14:46:10.207Z,43.71
2022-07-25T14:48:39.138Z,43.74
2022-07-25T14:51:07.365Z,43.77
2022-07-25T14:53:35.967Z,43.95
2022-07-25T14:56:05.180Z,44.14
2022-07-25T14:58:33.618Z,44.26
2022-07-25T15:01:02.441Z,44.51
2022-07-25T15:03:33.077Z,44.82
2022-07-25T15:06:02.062Z,44.99
2022-07-25T15:08:29.982Z,44.88
2022-07-25T15:10:58.061Z,44.74
2022-07-25T15:13:31.576Z,44.77
2022-07-25T15:16:01.675Z,44.66
2022-07-25T15:18:29.906Z,44.44
2022-07-25T15:20:57.816Z,44.52
2022-07-25T15:23:28.656Z,44.66
2022-07-25T15:26:02.431Z,44.75
2022-07-25T15:28:36.350Z,44.81
2022-07-25T15:31:06.295Z,44.89
2022-07-25T15:33:34.235Z,44.96
2022-07-25T15:36:02.276Z,44.88
2022-07-25T15:38:30.867Z,45.02
2022-07-25T15:40:59.046Z,45.16
2022-07-25T15:43:27.490Z,45.45
2022-07-25T15:45:55.470Z,45.68
2022-07-25T15:48:24.050Z,45.80
2022-07-25T15:50:51.901Z,46.08
2022-07-25T15:53:20.180Z,46.39
2022-07-25T15:55:47.852Z,46.66
2022-07-25T15:58:15.777Z,46.64
2022-07-25T16:00:44.024Z,46.36
2022-07-25T16:03:11.870Z,46.26
2022-07-25T16:05:40.667Z,46.17
2022-07-25T16:08:09.936Z,46.24
2022-07-25T16:10:38.342Z,46.29
2022-07-25T16:13:06.216Z,46.53
2022-07-25T16:15:34.341Z,46.73
2022-07-25T16:18:03.108Z,46.88
2022-07-25T16:20:32.386Z,47.05
2022-07-25T16:23:01.500Z,46.97
2022-07-25T16:25:30.663Z,46.99
2022-07-25T16:27:59.954Z,47.00
2022-07-25T16:30:28.321Z,46.85
2022-07-25T16:32:56.033Z,46.91
2022-07-25T16:35:24.371Z,47.19
2022-07-25T16:37:52.454Z,47.24
2022-07-25T16:40:22.346Z,47.08
2022-07-25T16:42:55.734Z,46.84
2022-07-25T16:45:24.013Z,46.75
2022-07-25T16:47:51.844Z,46.66
2022-07-25T16:50:20.500Z,46.57
2022-07-25T16:52:48.533Z,46.55
2022-07-25T16:55:16.618Z,46.51
2022-07-25T16:57:45.333Z,46.55
2022-07-25T17:00:13.564Z,46.95
2022-07-25T17:02:42.597Z,47.18
2022-07-25T17:05:11.762Z,47.15
2022-07-25T17:07:39.947Z,46.87
2022-07-25T17:10:08.618Z,46.56
2022-07-25T17:12:36.727Z,46.49
2022-07-25T17:15:05.236Z,46.59
2022-07-25T17:17:34.298Z,46.64
2022-07-25T17:20:02.249Z,46.65
2022-07-25T17:22:30.113Z,46.65
2022-07-25T17:24:57.825Z,46.54
2022-07-25T17:27:25.956Z,46.35
2022-07-25T17:29:54.168Z,46.24
2022-07-25T17:32:25.107Z,46.09
2022-07-25T17:34:58.254Z,45.91
2022-07-25T17:37:27.753Z,45.95
2022-07-25T17:39:56.080Z,45.95
2022-07-25T17:42:24.125Z,45.92
2022-07-25T17:44:53.215Z,45.88
2022-07-25T17:47:22.397Z,45.71
2022-07-25T17:49:51.547Z,45.57
2022-07-25T17:52:19.451Z,45.56
2022-07-25T17:54:47.742Z,45.51
2022-07-25T17:57:15.625Z,45.33
2022-07-25T17:59:45.882Z,45.26
2022-07-25T18:02:15.782Z,45.07
2022-07-25T18:04:44.745Z,44.95
2022-07-25T18:07:12.506Z,44.79
2022-07-25T18:09:40.378Z,44.43
2022-07-25T18:12:09.338Z,44.06
2022-07-25T18:14:37.037Z,43.64
2022-07-25T18:17:06.272Z,43.31
2022-07-25T18:19:34.330Z,43.00
2022-07-25T18:22:02.032Z,42.46
2022-07-25T18:24:30.685Z,41.76
2022-07-25T18:26:59.487Z,40.96
2022-07-25T18:29:27.402Z,40.22
2022-07-25T18:31:55.254Z,39.47
2022-07-25T18:34:23.458Z,38.78
2022-07-25T18:36:51.239Z,38.15
2022-07-25T18:39:19.071Z,37.61
2022-07-25T18:41:47.082Z,37.08
2022-07-25T18:44:15.482Z,36.58
2022-07-25T18:46:45.672Z,36.13
2022-07-25T18:49:13.999Z,35.66
2022-07-25T18:51:42.223Z,35.23
2022-07-25T18:54:10.331Z,34.75
2022-07-25T18:56:38.905Z,34.35
2022-07-25T18:59:07.007Z,33.99
2022-07-25T19:01:37.360Z,33.64
2022-07-25T19:04:05.891Z,33.33
2022-07-25T19:06:34.369Z,33.02
2022-07-25T19:09:02.728Z,32.75
2022-07-25T19:11:31.352Z,32.52
2022-07-25T19:13:59.014Z,32.23
2022-07-25T19:16:27.244Z,31.99
2022-07-25T19:18:56.222Z,31.79
2022-07-25T19:21:23.942Z,31.60
2022-07-25T19:23:51.678Z,31.38
2022-07-25T19:26:21.255Z,31.18
2022-07-25T19:28:50.465Z,31.00
2022-07-25T19:31:18.992Z,30.81
2022-07-25T19:33:47.822Z,30.62
2022-07-25T19:36:15.585Z,30.43
2022-07-25T19:38:43.396Z,30.25
2022-07-25T19:41:12.421Z,30.10
2022-07-25T19:43:40.414Z,29.94
2022-07-25T19:46:08.293Z,29.78
2022-07-25T19:48:36.475Z,29.61
2022-07-25T19:51:04.554Z,29.48
2022-07-25T19:53:32.481Z,29.34
2022-07-25T19:56:01.851Z,29.21
2022-07-25T19:58:29.864Z,29.07
2022-07-25T20:00:57.790Z,28.94
2022-07-25T20:03:26.083Z,28.82
2022-07-25T20:05:53.781Z,28.70
2022-07-25T20:08:21.803Z,28.59
2022-07-25T20:10:50.241Z,28.47
2022-07-25T20:13:17.932Z,28.36
2022-07-25T20:15:45.772Z,28.24
2022-07-25T20:18:19.268Z,28.12
2022-07-25T20:20:47.879Z,28.03
2022-07-25T20:23:16.552Z,27.95
2022-07-25T20:25:44.498Z,27.84
2022-07-25T20:28:12.344Z,27.72
2022-07-25T20:30:40.953Z,27.61
2022-07-25T20:33:09.911Z,27.51
2022-07-25T20:35:38.297Z,27.40
2022-07-25T20:38:09.950Z,27.30
2022-07-25T20:40:46.265Z,27.18
2022-07-25T20:43:14.724Z,27.09
2022-07-25T20:45:42.605Z,26.99
2022-07-25T20:48:10.843Z,26.91
2022-07-25T20:50:39.776Z,26.79
2022-07-25T20:53:08.299Z,26.69
2022-07-25T20:55:36.070Z,26.59
2022-07-25T20:58:05.204Z,26.51
2022-07-25T21:00:33.978Z,26.42
2022-07-25T21:03:02.733Z,26.33
2022-07-25T21:05:31.179Z,26.24
2022-07-25T21:07:59.466Z,26.16
2022-07-25T21:10:27.480Z,26.09
2022-07-25T21:12:56.885Z,26.01
2022-07-25T21:15:25.324Z,25.91
2022-07-25T21:17:53.051Z,25.84
2022-07-25T21:20:21.259Z,25.77
2022-07-25T21:22:49.230Z,25.69
2022-07-25T21:25:17.784Z,25.63
2022-07-25T21:27:46.260Z,25.56
2022-07-25T21:30:14.428Z,25.48
2022-07-25T21:32:44.829Z,25.40
2022-07-25T21:35:13.184Z,25.32
2022-07-25T21:37:42.316Z,25.24
2022-07-25T21:40:10.840Z,25.17
2022-07-25T21:42:39.221Z,25.10
2022-07-25T21:45:07.423Z,25.02
2022-07-25T21:47:35.807Z,24.95
2022-07-25T21:50:24.868Z,24.90
2022-07-25T21:52:53.468Z,24.79
2022-07-25T21:55:22.179Z,24.77
2022-07-25T21:57:54.058Z,24.72
2022-07-25T22:00:22.434Z,24.66
2022-07-25T22:03:09.559Z,24.60
2022-07-25T22:05:38.167Z,24.55
2022-07-25T22:08:06.335Z,24.50
2022-07-25T22:10:34.719Z,24.45
2022-07-25T22:13:02.893Z,24.40
2022-07-25T22:15:31.711Z,24.36
2022-07-25T22:18:00.470Z,24.30
2022-07-25T22:20:28.738Z,24.26
2022-07-25T22:22:57.021Z,24.22
2022-07-25T22:25:25.902Z,24.18
2022-07-25T22:27:54.258Z,24.14
2022-07-25T22:30:22.728Z,24.09
2022-07-25T22:32:51.251Z,24.05
2022-07-25T22:35:20.797Z,24.01
2022-07-25T22:37:49.062Z,23.97
2022-07-25T22:40:18.328Z,23.92
2022-07-25T22:42:47.018Z,23.89
2022-07-25T22:45:15.295Z,23.84
2022-07-25T22:47:43.617Z,23.79
2022-07-25T22:50:13.394Z,23.75
2022-07-25T22:52:41.508Z,23.70
2022-07-25T22:55:14.019Z,23.66
2022-07-25T22:57:42.679Z,23.62
2022-07-25T23:00:12.549Z,23.58
2022-07-25T23:02:42.120Z,23.54
2022-07-25T23:05:10.585Z,23.51
2022-07-25T23:07:39.419Z,23.48
2022-07-25T23:10:08.684Z,23.43
2022-07-25T23:12:36.998Z,23.40
2022-07-25T23:15:06.240Z,23.37
2022-07-25T23:17:34.548Z,23.34
2022-07-25T23:20:03.323Z,23.31
2022-07-25T23:22:31.994Z,23.28
2022-07-25T23:25:00.204Z,23.26
2022-07-25T23:27:34.854Z,23.24
2022-07-25T23:30:21.880Z,23.22
2022-07-25T23:32:50.473Z,23.21
2022-07-25T23:35:20.338Z,23.19
2022-07-25T23:37:48.529Z,23.17
2022-07-25T23:40:17.279Z,23.16
2022-07-25T23:42:45.394Z,23.15
2022-07-25T23:45:50.114Z,23.12
2022-07-25T23:48:21.495Z,23.13
2022-07-25T23:50:49.631Z,23.13
2022-07-25T23:53:18.111Z,23.13
2022-07-25T23:55:46.580Z,23.14
2022-07-25T23:58:14.646Z,23.14
